sensor_id;sensor_type;location;lat;lon;timestamp;temperature;humidity
42037;DHT22;30340;52.004;5.908;2023-03-12T00:00:41;4.20;75.60
42037;DHT22;30340;52.004;5.908;2023-03-12T00:03:06;4.10;75.60
42037;DHT22;30340;52.004;5.908;2023-03-12T00:05:32;4.10;75.60
42037;DHT22;30340;52.004;5.908;2023-03-12T00:07:58;4.10;75.60
42037;DHT22;30340;52.004;5.908;2023-03-12T00:10:24;4.10;75.60
42037;DHT22;30340;52.004;5.908;2023-03-12T00:12:50;4.10;75.50
42037;DHT22;30340;52.004;5.908;2023-03-12T00:15:15;4.10;75.50
42037;DHT22;30340;52.004;5.908;2023-03-12T00:17:41;4.10;75.60
42037;DHT22;30340;52.004;5.908;2023-03-12T00:20:06;4.10;75.60
42037;DHT22;30340;52.004;5.908;2023-03-12T00:22:32;4.10;75.30
42037;DHT22;30340;52.004;5.908;2023-03-12T00:24:58;4.10;75.30
42037;DHT22;30340;52.004;5.908;2023-03-12T00:27:24;4.10;75.00
42037;DHT22;30340;52.004;5.908;2023-03-12T00:29:50;4.10;75.10
42037;DHT22;30340;52.004;5.908;2023-03-12T00:32:15;4.10;75.20
42037;DHT22;30340;52.004;5.908;2023-03-12T00:34:41;4.10;75.10
42037;DHT22;30340;52.004;5.908;2023-03-12T00:37:06;4.20;75.20
42037;DHT22;30340;52.004;5.908;2023-03-12T00:39:32;4.10;74.80
42037;DHT22;30340;52.004;5.908;2023-03-12T00:41:58;4.10;74.90
42037;DHT22;30340;52.004;5.908;2023-03-12T00:44:23;4.10;75.00
42037;DHT22;30340;52.004;5.908;2023-03-12T00:46:49;4.00;74.80
42037;DHT22;30340;52.004;5.908;2023-03-12T00:49:14;4.00;75.00
42037;DHT22;30340;52.004;5.908;2023-03-12T00:51:40;4.00;75.10
42037;DHT22;30340;52.004;5.908;2023-03-12T00:54:05;4.00;74.90
42037;DHT22;30340;52.004;5.908;2023-03-12T00:56:31;4.00;74.90
42037;DHT22;30340;52.004;5.908;2023-03-12T00:58:56;4.00;74.80
42037;DHT22;30340;52.004;5.908;2023-03-12T01:01:22;4.00;74.80
42037;DHT22;30340;52.004;5.908;2023-03-12T01:03:48;4.00;74.80
42037;DHT22;30340;52.004;5.908;2023-03-12T01:06:14;4.00;74.60
42037;DHT22;30340;52.004;5.908;2023-03-12T01:08:40;3.90;74.60
42037;DHT22;30340;52.004;5.908;2023-03-12T01:11:05;4.00;74.80
42037;DHT22;30340;52.004;5.908;2023-03-12T01:13:31;4.10;74.80
42037;DHT22;30340;52.004;5.908;2023-03-12T01:15:56;4.10;74.80
42037;DHT22;30340;52.004;5.908;2023-03-12T01:18:21;4.20;74.80
42037;DHT22;30340;52.004;5.908;2023-03-12T01:20:47;4.20;74.80
42037;DHT22;30340;52.004;5.908;2023-03-12T01:23:13;4.30;74.70
42037;DHT22;30340;52.004;5.908;2023-03-12T01:25:39;4.30;74.60
42037;DHT22;30340;52.004;5.908;2023-03-12T01:28:04;4.30;74.30
42037;DHT22;30340;52.004;5.908;2023-03-12T01:30:30;4.30;74.40
42037;DHT22;30340;52.004;5.908;2023-03-12T01:32:55;4.30;74.40
42037;DHT22;30340;52.004;5.908;2023-03-12T01:35:21;4.30;74.40
42037;DHT22;30340;52.004;5.908;2023-03-12T01:37:46;4.20;74.30
42037;DHT22;30340;52.004;5.908;2023-03-12T01:40:14;4.20;74.40
42037;DHT22;30340;52.004;5.908;2023-03-12T01:42:40;4.20;74.20
42037;DHT22;30340;52.004;5.908;2023-03-12T01:45:49;4.20;74.40
42037;DHT22;30340;52.004;5.908;2023-03-12T01:47:51;4.10;74.40
42037;DHT22;30340;52.004;5.908;2023-03-12T01:50:16;4.10;74.40
42037;DHT22;30340;52.004;5.908;2023-03-12T01:52:42;4.10;74.30
42037;DHT22;30340;52.004;5.908;2023-03-12T01:55:09;4.10;74.30
42037;DHT22;30340;52.004;5.908;2023-03-12T01:57:36;4.10;74.40
42037;DHT22;30340;52.004;5.908;2023-03-12T02:00:07;4.10;74.40
42037;DHT22;30340;52.004;5.908;2023-03-12T02:02:34;4.10;74.50
42037;DHT22;30340;52.004;5.908;2023-03-12T02:07:48;4.10;74.10
42037;DHT22;30340;52.004;5.908;2023-03-12T02:10:14;4.10;74.20
42037;DHT22;30340;52.004;5.908;2023-03-12T02:12:39;4.20;74.30
42037;DHT22;30340;52.004;5.908;2023-03-12T02:15:05;4.10;74.10
42037;DHT22;30340;52.004;5.908;2023-03-12T02:17:31;4.20;74.20
42037;DHT22;30340;52.004;5.908;2023-03-12T02:22:22;4.20;74.30
42037;DHT22;30340;52.004;5.908;2023-03-12T02:27:32;4.20;74.50
42037;DHT22;30340;52.004;5.908;2023-03-12T02:29:58;4.20;74.40
42037;DHT22;30340;52.004;5.908;2023-03-12T02:32:25;4.20;74.50
42037;DHT22;30340;52.004;5.908;2023-03-12T02:34:52;4.20;74.50
42037;DHT22;30340;52.004;5.908;2023-03-12T02:37:18;4.20;74.50
42037;DHT22;30340;52.004;5.908;2023-03-12T02:39:45;4.20;74.60
42037;DHT22;30340;52.004;5.908;2023-03-12T02:42:14;4.10;74.40
42037;DHT22;30340;52.004;5.908;2023-03-12T02:44:39;4.10;74.50
42037;DHT22;30340;52.004;5.908;2023-03-12T02:47:05;4.00;74.60
42037;DHT22;30340;52.004;5.908;2023-03-12T02:49:31;4.00;74.70
42037;DHT22;30340;52.004;5.908;2023-03-12T02:51:57;4.00;74.40
42037;DHT22;30340;52.004;5.908;2023-03-12T02:54:23;4.00;74.50
42037;DHT22;30340;52.004;5.908;2023-03-12T02:56:49;4.00;74.50
42037;DHT22;30340;52.004;5.908;2023-03-12T02:59:15;4.10;74.50
42037;DHT22;30340;52.004;5.908;2023-03-12T03:01:41;4.10;74.60
42037;DHT22;30340;52.004;5.908;2023-03-12T03:04:08;4.20;74.60
42037;DHT22;30340;52.004;5.908;2023-03-12T03:06:33;4.20;74.50
42037;DHT22;30340;52.004;5.908;2023-03-12T03:08:59;4.20;75.10
42037;DHT22;30340;52.004;5.908;2023-03-12T03:11:25;4.20;74.50
42037;DHT22;30340;52.004;5.908;2023-03-12T03:13:51;4.20;74.40
42037;DHT22;30340;52.004;5.908;2023-03-12T03:16:16;4.20;74.40
42037;DHT22;30340;52.004;5.908;2023-03-12T03:18:42;4.10;74.40
42037;DHT22;30340;52.004;5.908;2023-03-12T03:21:08;4.20;74.50
42037;DHT22;30340;52.004;5.908;2023-03-12T03:23:34;4.20;74.60
42037;DHT22;30340;52.004;5.908;2023-03-12T03:26:00;4.30;74.60
42037;DHT22;30340;52.004;5.908;2023-03-12T03:28:26;4.20;74.40
42037;DHT22;30340;52.004;5.908;2023-03-12T03:30:53;4.30;74.50
42037;DHT22;30340;52.004;5.908;2023-03-12T03:33:19;4.30;74.50
42037;DHT22;30340;52.004;5.908;2023-03-12T03:35:44;4.30;74.50
42037;DHT22;30340;52.004;5.908;2023-03-12T03:38:10;4.40;74.50
42037;DHT22;30340;52.004;5.908;2023-03-12T03:40:35;4.40;74.50
42037;DHT22;30340;52.004;5.908;2023-03-12T03:43:01;4.30;74.30
42037;DHT22;30340;52.004;5.908;2023-03-12T03:45:26;4.30;74.30
42037;DHT22;30340;52.004;5.908;2023-03-12T03:47:52;4.20;74.40
42037;DHT22;30340;52.004;5.908;2023-03-12T03:50:17;4.20;74.50
42037;DHT22;30340;52.004;5.908;2023-03-12T03:52:43;4.20;74.60
42037;DHT22;30340;52.004;5.908;2023-03-12T03:55:08;4.20;74.50
42037;DHT22;30340;52.004;5.908;2023-03-12T03:57:34;4.20;74.60
42037;DHT22;30340;52.004;5.908;2023-03-12T04:00:00;4.30;74.50
42037;DHT22;30340;52.004;5.908;2023-03-12T04:02:26;4.30;74.40
42037;DHT22;30340;52.004;5.908;2023-03-12T04:04:52;4.30;74.50
42037;DHT22;30340;52.004;5.908;2023-03-12T04:07:20;4.20;74.40
42037;DHT22;30340;52.004;5.908;2023-03-12T04:09:46;4.20;74.40
42037;DHT22;30340;52.004;5.908;2023-03-12T04:12:11;4.10;74.40
42037;DHT22;30340;52.004;5.908;2023-03-12T04:14:40;4.10;74.40
42037;DHT22;30340;52.004;5.908;2023-03-12T04:17:06;4.10;74.50
42037;DHT22;30340;52.004;5.908;2023-03-12T04:19:32;4.10;74.60
42037;DHT22;30340;52.004;5.908;2023-03-12T04:21:57;4.10;74.50
42037;DHT22;30340;52.004;5.908;2023-03-12T04:24:22;4.10;74.30
42037;DHT22;30340;52.004;5.908;2023-03-12T04:26:48;4.00;74.20
42037;DHT22;30340;52.004;5.908;2023-03-12T04:29:14;4.00;74.20
42037;DHT22;30340;52.004;5.908;2023-03-12T04:31:39;4.00;74.40
42037;DHT22;30340;52.004;5.908;2023-03-12T04:34:05;4.00;74.50
42037;DHT22;30340;52.004;5.908;2023-03-12T04:36:30;4.10;74.60
42037;DHT22;30340;52.004;5.908;2023-03-12T04:38:56;4.10;74.50
42037;DHT22;30340;52.004;5.908;2023-03-12T04:41:21;4.20;74.40
42037;DHT22;30340;52.004;5.908;2023-03-12T04:43:47;4.20;74.30
42037;DHT22;30340;52.004;5.908;2023-03-12T04:46:13;4.20;74.30
42037;DHT22;30340;52.004;5.908;2023-03-12T04:48:39;4.20;74.40
42037;DHT22;30340;52.004;5.908;2023-03-12T04:51:04;4.20;74.40
42037;DHT22;30340;52.004;5.908;2023-03-12T04:53:30;4.20;74.50
42037;DHT22;30340;52.004;5.908;2023-03-12T04:55:55;4.20;74.50
42037;DHT22;30340;52.004;5.908;2023-03-12T04:58:21;4.20;74.60
42037;DHT22;30340;52.004;5.908;2023-03-12T05:00:47;4.30;74.80
42037;DHT22;30340;52.004;5.908;2023-03-12T05:03:13;4.30;74.80
42037;DHT22;30340;52.004;5.908;2023-03-12T05:05:39;4.30;74.90
42037;DHT22;30340;52.004;5.908;2023-03-12T05:08:04;4.30;74.90
42037;DHT22;30340;52.004;5.908;2023-03-12T05:10:30;4.20;75.00
42037;DHT22;30340;52.004;5.908;2023-03-12T05:12:55;4.30;75.10
42037;DHT22;30340;52.004;5.908;2023-03-12T05:15:21;4.20;75.20
42037;DHT22;30340;52.004;5.908;2023-03-12T05:17:46;4.20;75.40
42037;DHT22;30340;52.004;5.908;2023-03-12T05:20:12;4.10;75.50
42037;DHT22;30340;52.004;5.908;2023-03-12T05:22:38;4.20;75.70
42037;DHT22;30340;52.004;5.908;2023-03-12T05:25:03;4.20;75.90
42037;DHT22;30340;52.004;5.908;2023-03-12T05:27:29;4.10;76.00
42037;DHT22;30340;52.004;5.908;2023-03-12T05:29:54;4.10;76.10
42037;DHT22;30340;52.004;5.908;2023-03-12T05:32:20;4.10;76.30
42037;DHT22;30340;52.004;5.908;2023-03-12T05:34:45;4.10;76.50
42037;DHT22;30340;52.004;5.908;2023-03-12T05:37:11;4.00;76.70
42037;DHT22;30340;52.004;5.908;2023-03-12T05:39:36;3.90;76.90
42037;DHT22;30340;52.004;5.908;2023-03-12T05:42:02;4.00;77.20
42037;DHT22;30340;52.004;5.908;2023-03-12T05:44:28;3.90;77.30
42037;DHT22;30340;52.004;5.908;2023-03-12T05:46:53;3.90;77.40
42037;DHT22;30340;52.004;5.908;2023-03-12T05:49:19;4.00;77.60
42037;DHT22;30340;52.004;5.908;2023-03-12T05:51:46;3.90;77.50
42037;DHT22;30340;52.004;5.908;2023-03-12T05:54:11;4.00;77.60
42037;DHT22;30340;52.004;5.908;2023-03-12T05:56:37;4.00;77.60
42037;DHT22;30340;52.004;5.908;2023-03-12T05:59:02;4.00;77.70
42037;DHT22;30340;52.004;5.908;2023-03-12T06:01:29;4.00;77.80
42037;DHT22;30340;52.004;5.908;2023-03-12T06:03:55;4.00;77.80
42037;DHT22;30340;52.004;5.908;2023-03-12T06:06:20;4.00;77.90
42037;DHT22;30340;52.004;5.908;2023-03-12T06:08:46;4.00;77.90
42037;DHT22;30340;52.004;5.908;2023-03-12T06:11:12;4.00;77.90
42037;DHT22;30340;52.004;5.908;2023-03-12T06:13:37;4.10;77.90
42037;DHT22;30340;52.004;5.908;2023-03-12T06:16:07;4.10;77.90
42037;DHT22;30340;52.004;5.908;2023-03-12T06:18:33;4.10;77.90
42037;DHT22;30340;52.004;5.908;2023-03-12T06:23:36;4.20;78.00
42037;DHT22;30340;52.004;5.908;2023-03-12T06:26:02;4.10;77.90
42037;DHT22;30340;52.004;5.908;2023-03-12T06:28:27;4.10;77.90
42037;DHT22;30340;52.004;5.908;2023-03-12T06:30:53;4.10;78.00
42037;DHT22;30340;52.004;5.908;2023-03-12T06:33:19;4.10;78.00
42037;DHT22;30340;52.004;5.908;2023-03-12T06:35:44;4.10;78.10
42037;DHT22;30340;52.004;5.908;2023-03-12T06:38:10;4.10;78.10
42037;DHT22;30340;52.004;5.908;2023-03-12T06:40:35;4.10;78.20
42037;DHT22;30340;52.004;5.908;2023-03-12T06:43:01;4.10;78.40
42037;DHT22;30340;52.004;5.908;2023-03-12T06:45:27;4.10;78.70
42037;DHT22;30340;52.004;5.908;2023-03-12T06:47:53;4.10;78.70
42037;DHT22;30340;52.004;5.908;2023-03-12T06:50:18;4.10;78.80
42037;DHT22;30340;52.004;5.908;2023-03-12T06:52:44;4.10;79.00
42037;DHT22;30340;52.004;5.908;2023-03-12T06:55:09;4.10;79.10
42037;DHT22;30340;52.004;5.908;2023-03-12T06:57:34;4.10;79.30
42037;DHT22;30340;52.004;5.908;2023-03-12T07:00:00;4.10;79.30
42037;DHT22;30340;52.004;5.908;2023-03-12T07:02:25;4.10;79.30
42037;DHT22;30340;52.004;5.908;2023-03-12T07:04:51;4.10;79.40
42037;DHT22;30340;52.004;5.908;2023-03-12T07:07:16;4.10;79.50
42037;DHT22;30340;52.004;5.908;2023-03-12T07:09:42;4.20;79.70
42037;DHT22;30340;52.004;5.908;2023-03-12T07:12:08;4.20;79.60
42037;DHT22;30340;52.004;5.908;2023-03-12T07:14:33;4.20;79.60
42037;DHT22;30340;52.004;5.908;2023-03-12T07:16:59;4.20;79.70
42037;DHT22;30340;52.004;5.908;2023-03-12T07:19:27;4.20;79.80
42037;DHT22;30340;52.004;5.908;2023-03-12T07:21:54;4.20;80.00
42037;DHT22;30340;52.004;5.908;2023-03-12T07:24:19;4.20;80.30
42037;DHT22;30340;52.004;5.908;2023-03-12T07:26:45;4.30;81.00
42037;DHT22;30340;52.004;5.908;2023-03-12T07:29:10;4.30;80.40
42037;DHT22;30340;52.004;5.908;2023-03-12T07:31:36;4.30;80.60
42037;DHT22;30340;52.004;5.908;2023-03-12T07:34:01;4.30;80.60
42037;DHT22;30340;52.004;5.908;2023-03-12T07:36:27;4.30;80.80
42037;DHT22;30340;52.004;5.908;2023-03-12T07:38:54;4.30;81.10
42037;DHT22;30340;52.004;5.908;2023-03-12T07:41:19;4.30;81.50
42037;DHT22;30340;52.004;5.908;2023-03-12T07:43:45;4.30;81.90
42037;DHT22;30340;52.004;5.908;2023-03-12T07:46:11;4.20;82.10
42037;DHT22;30340;52.004;5.908;2023-03-12T07:48:36;4.30;82.30
42037;DHT22;30340;52.004;5.908;2023-03-12T07:51:03;4.20;82.70
42037;DHT22;30340;52.004;5.908;2023-03-12T07:53:28;4.30;82.90
42037;DHT22;30340;52.004;5.908;2023-03-12T07:55:54;4.20;83.00
42037;DHT22;30340;52.004;5.908;2023-03-12T07:58:19;4.30;83.20
42037;DHT22;30340;52.004;5.908;2023-03-12T08:00:45;4.30;83.30
42037;DHT22;30340;52.004;5.908;2023-03-12T08:03:11;4.30;83.40
42037;DHT22;30340;52.004;5.908;2023-03-12T08:05:37;4.30;83.90
42037;DHT22;30340;52.004;5.908;2023-03-12T08:08:02;4.30;84.10
42037;DHT22;30340;52.004;5.908;2023-03-12T08:10:28;4.30;84.20
42037;DHT22;30340;52.004;5.908;2023-03-12T08:12:53;4.30;84.60
42037;DHT22;30340;52.004;5.908;2023-03-12T08:15:19;4.30;85.20
42037;DHT22;30340;52.004;5.908;2023-03-12T08:17:44;4.30;85.40
42037;DHT22;30340;52.004;5.908;2023-03-12T08:20:10;4.30;85.40
42037;DHT22;30340;52.004;5.908;2023-03-12T08:22:36;4.30;85.50
42037;DHT22;30340;52.004;5.908;2023-03-12T08:25:02;4.30;85.50
42037;DHT22;30340;52.004;5.908;2023-03-12T08:27:28;4.40;85.50
42037;DHT22;30340;52.004;5.908;2023-03-12T08:29:53;4.40;85.50
42037;DHT22;30340;52.004;5.908;2023-03-12T08:32:19;4.40;85.70
42037;DHT22;30340;52.004;5.908;2023-03-12T08:34:44;4.50;86.00
42037;DHT22;30340;52.004;5.908;2023-03-12T08:37:10;4.50;86.30
42037;DHT22;30340;52.004;5.908;2023-03-12T08:39:35;4.50;86.60
42037;DHT22;30340;52.004;5.908;2023-03-12T08:42:01;4.60;86.60
42037;DHT22;30340;52.004;5.908;2023-03-12T08:44:27;4.60;86.60
42037;DHT22;30340;52.004;5.908;2023-03-12T08:46:52;4.70;86.60
42037;DHT22;30340;52.004;5.908;2023-03-12T08:49:18;4.70;86.80
42037;DHT22;30340;52.004;5.908;2023-03-12T08:51:44;4.70;87.20
42037;DHT22;30340;52.004;5.908;2023-03-12T08:54:10;4.70;87.00
42037;DHT22;30340;52.004;5.908;2023-03-12T08:56:35;4.80;87.20
42037;DHT22;30340;52.004;5.908;2023-03-12T08:59:07;4.80;87.50
42037;DHT22;30340;52.004;5.908;2023-03-12T09:01:32;4.80;87.50
42037;DHT22;30340;52.004;5.908;2023-03-12T09:03:58;4.80;87.50
42037;DHT22;30340;52.004;5.908;2023-03-12T09:06:23;4.90;87.60
42037;DHT22;30340;52.004;5.908;2023-03-12T09:08:49;5.00;87.60
42037;DHT22;30340;52.004;5.908;2023-03-12T09:11:16;5.00;87.70
42037;DHT22;30340;52.004;5.908;2023-03-12T09:13:41;5.00;88.30
42037;DHT22;30340;52.004;5.908;2023-03-12T09:16:07;4.90;88.60
42037;DHT22;30340;52.004;5.908;2023-03-12T09:18:32;5.00;88.80
42037;DHT22;30340;52.004;5.908;2023-03-12T09:20:58;5.00;88.80
42037;DHT22;30340;52.004;5.908;2023-03-12T09:23:24;5.10;88.70
42037;DHT22;30340;52.004;5.908;2023-03-12T09:25:50;5.10;89.00
42037;DHT22;30340;52.004;5.908;2023-03-12T09:28:15;5.10;89.10
42037;DHT22;30340;52.004;5.908;2023-03-12T09:30:44;5.20;89.30
42037;DHT22;30340;52.004;5.908;2023-03-12T09:33:12;5.30;89.30
42037;DHT22;30340;52.004;5.908;2023-03-12T09:35:39;5.30;89.00
42037;DHT22;30340;52.004;5.908;2023-03-12T09:38:05;5.30;89.10
42037;DHT22;30340;52.004;5.908;2023-03-12T09:40:32;5.30;89.30
42037;DHT22;30340;52.004;5.908;2023-03-12T09:43:05;5.30;89.60
42037;DHT22;30340;52.004;5.908;2023-03-12T09:45:36;5.40;89.60
42037;DHT22;30340;52.004;5.908;2023-03-12T09:48:03;5.50;89.60
42037;DHT22;30340;52.004;5.908;2023-03-12T09:50:33;5.50;89.50
42037;DHT22;30340;52.004;5.908;2023-03-12T09:53:03;5.60;89.70
42037;DHT22;30340;52.004;5.908;2023-03-12T09:55:36;5.60;90.00
42037;DHT22;30340;52.004;5.908;2023-03-12T09:58:03;5.70;90.00
42037;DHT22;30340;52.004;5.908;2023-03-12T10:00:30;5.80;90.10
42037;DHT22;30340;52.004;5.908;2023-03-12T10:03:01;5.80;90.00
42037;DHT22;30340;52.004;5.908;2023-03-12T10:08:07;5.90;90.00
42037;DHT22;30340;52.004;5.908;2023-03-12T10:13:04;6.00;90.00
42037;DHT22;30340;52.004;5.908;2023-03-12T10:15:37;6.10;90.00
42037;DHT22;30340;52.004;5.908;2023-03-12T10:20:33;6.20;90.00
42037;DHT22;30340;52.004;5.908;2023-03-12T10:25:46;6.40;90.00
42037;DHT22;30340;52.004;5.908;2023-03-12T10:30:41;6.50;90.10
42037;DHT22;30340;52.004;5.908;2023-03-12T10:33:11;6.50;90.10
42037;DHT22;30340;52.004;5.908;2023-03-12T10:35:38;6.50;90.10
42037;DHT22;30340;52.004;5.908;2023-03-12T10:38:04;6.60;90.10
42037;DHT22;30340;52.004;5.908;2023-03-12T10:40:35;6.60;90.10
42037;DHT22;30340;52.004;5.908;2023-03-12T10:43:01;6.70;90.10
42037;DHT22;30340;52.004;5.908;2023-03-12T10:45:35;6.80;90.20
42037;DHT22;30340;52.004;5.908;2023-03-12T10:48:06;6.80;90.20
42037;DHT22;30340;52.004;5.908;2023-03-12T10:50:36;6.90;90.10
42037;DHT22;30340;52.004;5.908;2023-03-12T10:55:43;7.00;90.10
42037;DHT22;30340;52.004;5.908;2023-03-12T10:58:22;7.10;90.20
42037;DHT22;30340;52.004;5.908;2023-03-12T11:00:58;7.20;90.10
42037;DHT22;30340;52.004;5.908;2023-03-12T11:03:24;7.30;90.10
42037;DHT22;30340;52.004;5.908;2023-03-12T11:05:53;7.30;90.00
42037;DHT22;30340;52.004;5.908;2023-03-12T11:08:23;7.40;90.00
42037;DHT22;30340;52.004;5.908;2023-03-12T11:10:51;7.50;90.00
42037;DHT22;30340;52.004;5.908;2023-03-12T11:15:52;7.60;90.10
42037;DHT22;30340;52.004;5.908;2023-03-12T11:20:43;7.70;90.10
42037;DHT22;30340;52.004;5.908;2023-03-12T11:23:16;7.80;90.00
42037;DHT22;30340;52.004;5.908;2023-03-12T11:25:42;7.90;90.10
42037;DHT22;30340;52.004;5.908;2023-03-12T11:28:12;7.90;90.30
42037;DHT22;30340;52.004;5.908;2023-03-12T11:30:41;8.00;90.30
42037;DHT22;30340;52.004;5.908;2023-03-12T11:33:09;8.10;90.20
42037;DHT22;30340;52.004;5.908;2023-03-12T11:38:08;8.30;90.20
42037;DHT22;30340;52.004;5.908;2023-03-12T11:40:48;8.40;90.50
42037;DHT22;30340;52.004;5.908;2023-03-12T11:50:56;8.70;90.40
42037;DHT22;30340;52.004;5.908;2023-03-12T12:01:09;9.00;90.40
42037;DHT22;30340;52.004;5.908;2023-03-12T12:12:11;9.20;90.60
42037;DHT22;30340;52.004;5.908;2023-03-12T12:14:21;9.30;90.60
42037;DHT22;30340;52.004;5.908;2023-03-12T12:16:51;9.40;90.60
42037;DHT22;30340;52.004;5.908;2023-03-12T12:29:30;9.70;90.80
42037;DHT22;30340;52.004;5.908;2023-03-12T12:31:59;9.70;90.80
42037;DHT22;30340;52.004;5.908;2023-03-12T12:36:53;9.80;91.00
42037;DHT22;30340;52.004;5.908;2023-03-12T12:39:36;9.80;91.00
42037;DHT22;30340;52.004;5.908;2023-03-12T12:42:05;9.90;91.00
42037;DHT22;30340;52.004;5.908;2023-03-12T12:44:51;9.90;91.10
42037;DHT22;30340;52.004;5.908;2023-03-12T12:47:19;9.90;91.00
42037;DHT22;30340;52.004;5.908;2023-03-12T12:49:50;10.00;91.00
42037;DHT22;30340;52.004;5.908;2023-03-12T12:52:18;10.00;90.90
42037;DHT22;30340;52.004;5.908;2023-03-12T12:55:03;10.00;91.10
42037;DHT22;30340;52.004;5.908;2023-03-12T13:00:20;10.10;91.20
42037;DHT22;30340;52.004;5.908;2023-03-12T13:02:48;10.10;91.20
42037;DHT22;30340;52.004;5.908;2023-03-12T13:05:18;10.20;91.10
42037;DHT22;30340;52.004;5.908;2023-03-12T13:07:44;10.20;91.10
42037;DHT22;30340;52.004;5.908;2023-03-12T13:10:36;10.30;91.00
42037;DHT22;30340;52.004;5.908;2023-03-12T13:12:55;10.30;91.00
42037;DHT22;30340;52.004;5.908;2023-03-12T13:20:27;10.30;91.00
42037;DHT22;30340;52.004;5.908;2023-03-12T13:23:01;10.30;91.10
42037;DHT22;30340;52.004;5.908;2023-03-12T13:28:00;10.20;91.10
42037;DHT22;30340;52.004;5.908;2023-03-12T13:45:32;10.60;91.10
42037;DHT22;30340;52.004;5.908;2023-03-12T13:48:00;10.60;91.10
42037;DHT22;30340;52.004;5.908;2023-03-12T13:50:26;10.70;91.00
42037;DHT22;30340;52.004;5.908;2023-03-12T13:52:57;10.80;91.00
42037;DHT22;30340;52.004;5.908;2023-03-12T13:55:35;10.80;91.00
42037;DHT22;30340;52.004;5.908;2023-03-12T13:58:21;10.80;90.90
42037;DHT22;30340;52.004;5.908;2023-03-12T14:06:04;10.90;90.80
42037;DHT22;30340;52.004;5.908;2023-03-12T14:08:41;11.00;90.70
42037;DHT22;30340;52.004;5.908;2023-03-12T14:18:57;11.60;90.30
42037;DHT22;30340;52.004;5.908;2023-03-12T14:21:23;11.70;90.10
42037;DHT22;30340;52.004;5.908;2023-03-12T14:23:56;11.90;89.80
42037;DHT22;30340;52.004;5.908;2023-03-12T14:26:23;11.90;89.10
42037;DHT22;30340;52.004;5.908;2023-03-12T14:28:56;11.90;88.70
42037;DHT22;30340;52.004;5.908;2023-03-12T14:31:23;12.00;88.40
42037;DHT22;30340;52.004;5.908;2023-03-12T14:36:15;12.10;87.90
42037;DHT22;30340;52.004;5.908;2023-03-12T14:38:43;12.10;87.50
42037;DHT22;30340;52.004;5.908;2023-03-12T14:41:17;12.10;87.00
42037;DHT22;30340;52.004;5.908;2023-03-12T14:43:44;12.10;86.90
42037;DHT22;30340;52.004;5.908;2023-03-12T14:46:15;12.10;86.70
42037;DHT22;30340;52.004;5.908;2023-03-12T14:48:41;12.00;86.50
42037;DHT22;30340;52.004;5.908;2023-03-12T14:51:06;12.00;86.50
42037;DHT22;30340;52.004;5.908;2023-03-12T14:53:33;11.90;86.30
42037;DHT22;30340;52.004;5.908;2023-03-12T14:55:59;11.90;86.40
42037;DHT22;30340;52.004;5.908;2023-03-12T14:58:25;11.90;86.30
42037;DHT22;30340;52.004;5.908;2023-03-12T15:01:02;11.90;86.20
42037;DHT22;30340;52.004;5.908;2023-03-12T15:03:28;11.90;86.20
42037;DHT22;30340;52.004;5.908;2023-03-12T15:05:55;11.90;86.10
42037;DHT22;30340;52.004;5.908;2023-03-12T15:08:20;11.90;85.80
42037;DHT22;30340;52.004;5.908;2023-03-12T15:10:50;11.90;85.80
42037;DHT22;30340;52.004;5.908;2023-03-12T15:13:16;11.90;85.60
42037;DHT22;30340;52.004;5.908;2023-03-12T15:15:47;11.80;85.60
42037;DHT22;30340;52.004;5.908;2023-03-12T15:18:18;11.80;85.20
42037;DHT22;30340;52.004;5.908;2023-03-12T15:20:45;11.80;85.10
42037;DHT22;30340;52.004;5.908;2023-03-12T15:23:12;11.90;85.00
42037;DHT22;30340;52.004;5.908;2023-03-12T15:25:38;11.90;84.90
42037;DHT22;30340;52.004;5.908;2023-03-12T15:28:05;11.90;84.50
42037;DHT22;30340;52.004;5.908;2023-03-12T15:30:33;11.90;84.00
42037;DHT22;30340;52.004;5.908;2023-03-12T15:33:02;11.90;83.80
42037;DHT22;30340;52.004;5.908;2023-03-12T15:35:28;12.00;83.70
42037;DHT22;30340;52.004;5.908;2023-03-12T15:37:53;11.90;83.60
42037;DHT22;30340;52.004;5.908;2023-03-12T15:40:20;11.90;83.50
42037;DHT22;30340;52.004;5.908;2023-03-12T15:42:46;11.90;83.20
42037;DHT22;30340;52.004;5.908;2023-03-12T15:45:17;12.00;83.40
42037;DHT22;30340;52.004;5.908;2023-03-12T15:47:43;12.00;83.30
42037;DHT22;30340;52.004;5.908;2023-03-12T15:50:31;12.00;83.10
42037;DHT22;30340;52.004;5.908;2023-03-12T15:52:59;11.90;83.30
42037;DHT22;30340;52.004;5.908;2023-03-12T15:55:27;11.90;83.10
42037;DHT22;30340;52.004;5.908;2023-03-12T15:57:53;11.90;83.10
42037;DHT22;30340;52.004;5.908;2023-03-12T16:00:20;11.80;82.80
42037;DHT22;30340;52.004;5.908;2023-03-12T16:05:11;11.80;82.70
42037;DHT22;30340;52.004;5.908;2023-03-12T16:07:37;11.70;82.50
42037;DHT22;30340;52.004;5.908;2023-03-12T16:10:03;11.70;82.60
42037;DHT22;30340;52.004;5.908;2023-03-12T16:12:28;11.70;82.60
42037;DHT22;30340;52.004;5.908;2023-03-12T16:14:54;11.70;82.50
42037;DHT22;30340;52.004;5.908;2023-03-12T16:17:20;11.60;82.20
42037;DHT22;30340;52.004;5.908;2023-03-12T16:19:46;11.60;82.40
42037;DHT22;30340;52.004;5.908;2023-03-12T16:22:11;11.60;82.20
42037;DHT22;30340;52.004;5.908;2023-03-12T16:24:37;11.50;82.10
42037;DHT22;30340;52.004;5.908;2023-03-12T16:27:02;11.50;82.40
42037;DHT22;30340;52.004;5.908;2023-03-12T16:29:32;11.50;82.40
42037;DHT22;30340;52.004;5.908;2023-03-12T16:31:58;11.50;82.60
42037;DHT22;30340;52.004;5.908;2023-03-12T16:34:23;11.40;82.60
42037;DHT22;30340;52.004;5.908;2023-03-12T16:36:49;11.40;82.70
42037;DHT22;30340;52.004;5.908;2023-03-12T16:39:15;11.40;82.90
42037;DHT22;30340;52.004;5.908;2023-03-12T16:41:40;11.40;82.90
42037;DHT22;30340;52.004;5.908;2023-03-12T16:44:06;11.40;82.90
42037;DHT22;30340;52.004;5.908;2023-03-12T16:46:32;11.40;82.90
42037;DHT22;30340;52.004;5.908;2023-03-12T16:48:58;11.40;83.20
42037;DHT22;30340;52.004;5.908;2023-03-12T16:51:24;11.30;83.20
42037;DHT22;30340;52.004;5.908;2023-03-12T16:53:50;11.30;83.20
42037;DHT22;30340;52.004;5.908;2023-03-12T16:56:16;11.30;83.40
42037;DHT22;30340;52.004;5.908;2023-03-12T16:58:42;11.30;83.40
42037;DHT22;30340;52.004;5.908;2023-03-12T17:01:10;11.20;83.30
42037;DHT22;30340;52.004;5.908;2023-03-12T17:03:37;11.20;83.40
42037;DHT22;30340;52.004;5.908;2023-03-12T17:06:03;11.30;83.60
42037;DHT22;30340;52.004;5.908;2023-03-12T17:08:29;11.30;83.60
42037;DHT22;30340;52.004;5.908;2023-03-12T17:10:54;11.30;83.50
42037;DHT22;30340;52.004;5.908;2023-03-12T17:13:24;11.20;83.60
42037;DHT22;30340;52.004;5.908;2023-03-12T17:15:50;11.20;83.70
42037;DHT22;30340;52.004;5.908;2023-03-12T17:18:16;11.20;83.80
42037;DHT22;30340;52.004;5.908;2023-03-12T17:20:42;11.20;83.90
42037;DHT22;30340;52.004;5.908;2023-03-12T17:23:08;11.20;84.00
42037;DHT22;30340;52.004;5.908;2023-03-12T17:25:35;11.20;84.00
42037;DHT22;30340;52.004;5.908;2023-03-12T17:28:01;11.20;84.00
42037;DHT22;30340;52.004;5.908;2023-03-12T17:30:27;11.20;84.00
42037;DHT22;30340;52.004;5.908;2023-03-12T17:32:53;11.20;84.10